Terminal Aerodrome Forecast
Issued by NWS Melbourne, FL

Current Version | Previous Version | Text Only | Print | Product List | Glossary On
Versions: 1 2 3 4 5 6 7 8 9 10 11 12 13 14
000
FTUS42 KMLB 200500
TAFDAB
TAF
KDAB 200539Z 2006/2106 26003KT P6SM FEW250
     FM201500 27007KT P6SM SCT040 SCT250
     FM202000 12008KT P6SM VCTS SCT050CB SCT250
     FM210000 22005KT P6SM FEW060 FEW250=

USA.gov is the U.S. government's official web portal to all federal, state and local government web resources and services.